Time;durP1;ratioP1;P1;durP2;ratioP2;P2;SDS_P1;SDS_P2;PMS_P1;PMS_P2;Temp;Humidity;BMP_temperature;BMP_pressure;BME280_temperature;BME280_humidity;BME280_pressure;Samples;Min_cycle;Max_cycle;Signal;HPM_P1;HPM_P2
2023/03/02 00:01:09;;;;;;;28.92;14.88;;;;;;;-3.47;100.00;97367.38;5072060;28;20036;-54
2023/03/02 00:03:39;;;;;;;27.27;13.85;;;;;;;-3.37;100.00;97369.88;5076056;28;20542;-55
2023/03/02 00:06:07;;;;;;;20.85;12.18;;;;;;;-3.68;100.00;97368.63;5078082;28;20036;-56
2023/03/02 00:08:35;;;;;;;30.85;14.45;;;;;;;-3.74;100.00;97371.94;5081028;28;20408;-54
2023/03/02 00:11:02;;;;;;;27.80;13.63;;;;;;;-3.71;100.00;97376.06;5077712;28;20036;-57
2023/03/02 00:13:30;;;;;;;32.38;16.58;;;;;;;-3.79;100.00;97366.31;5072523;28;20068;-53
2023/03/02 00:15:56;;;;;;;34.45;15.18;;;;;;;-3.72;100.00;97371.78;5077750;28;20477;-53
2023/03/02 00:18:23;;;;;;;27.02;14.40;;;;;;;-3.74;100.00;97371.09;5073796;28;20106;-53
2023/03/02 00:20:50;;;;;;;30.35;14.63;;;;;;;-3.63;100.00;97362.03;5077934;28;20091;-55
2023/03/02 00:23:16;;;;;;;30.00;14.52;;;;;;;-3.64;100.00;97361.22;5070377;28;20573;-58
2023/03/02 00:25:42;;;;;;;25.73;13.60;;;;;;;-3.59;100.00;97361.56;5075233;28;20131;-56
2023/03/02 00:28:09;;;;;;;29.60;14.05;;;;;;;-3.65;100.00;97359.53;5071392;28;20052;-56
2023/03/02 00:30:39;;;;;;;28.70;14.98;;;;;;;-3.86;100.00;97362.63;5075284;28;20044;-56
2023/03/02 00:33:05;;;;;;;28.73;13.52;;;;;;;-3.82;100.00;97362.16;5070098;28;20064;-55
2023/03/02 00:35:40;;;;;;;29.58;13.50;;;;;;;-3.74;100.00;97357.88;5070806;28;20495;-56
2023/03/02 00:38:07;;;;;;;24.83;12.73;;;;;;;-3.89;100.00;97353.19;5067912;28;20483;-56
2023/03/02 00:40:34;;;;;;;26.88;14.10;;;;;;;-3.89;100.00;97353.19;5065726;28;20040;-55
2023/03/02 00:43:01;;;;;;;24.83;13.27;;;;;;;-3.78;100.00;97354.72;5068527;28;20103;-57
2023/03/02 00:45:27;;;;;;;26.10;14.05;;;;;;;-3.97;100.00;97347.88;5066369;28;20045;-55
2023/03/02 00:47:54;;;;;;;32.05;16.00;;;;;;;-3.94;100.00;97353.66;5072148;28;20547;-57
2023/03/02 00:50:21;;;;;;;29.58;14.68;;;;;;;-3.88;100.00;97354.84;5071956;28;20106;-56
2023/03/02 00:52:48;;;;;;;30.33;16.02;;;;;;;-3.86;100.00;97350.25;5066618;28;20102;-56
2023/03/02 00:55:14;;;;;;;26.63;13.95;;;;;;;-3.98;100.00;97349.69;5069791;28;20094;-54
2023/03/02 00:57:41;;;;;;;25.70;12.93;;;;;;;-4.08;100.00;97351.63;5072844;28;20048;-55
2023/03/02 01:00:08;;;;;;;28.27;14.18;;;;;;;-4.08;100.00;97349.00;5076412;28;20043;-56
2023/03/02 01:02:42;;;;;;;26.58;13.40;;;;;;;-4.15;100.00;97343.50;5073063;28;20055;-58
2023/03/02 01:05:12;;;;;;;26.35;12.93;;;;;;;-4.26;100.00;97343.78;5074161;28;20127;-55
2023/03/02 01:07:39;;;;;;;29.13;15.10;;;;;;;-4.23;100.00;97338.19;5080059;28;20043;-54
2023/03/02 01:10:06;;;;;;;30.20;14.40;;;;;;;-4.23;100.00;97324.97;5077739;28;20700;-57
2023/03/02 01:12:33;;;;;;;31.63;15.38;;;;;;;-4.28;100.00;97337.84;5074179;28;20556;-57
2023/03/02 01:14:59;;;;;;;32.90;15.10;;;;;;;-4.20;100.00;97340.53;5071719;28;20036;-54
2023/03/02 01:17:26;;;;;;;30.75;15.32;;;;;;;-4.15;100.00;97334.75;5074450;28;20131;-54
2023/03/02 01:19:53;;;;;;;33.95;15.18;;;;;;;-4.23;100.00;97336.38;5075617;28;20044;-56
2023/03/02 01:22:21;;;;;;;29.05;14.85;;;;;;;-4.18;100.00;97331.44;5072460;28;20508;-54
2023/03/02 01:24:48;;;;;;;29.40;14.25;;;;;;;-4.22;100.00;97330.09;5074769;28;20028;-55
2023/03/02 01:27:15;;;;;;;29.67;14.07;;;;;;;-4.18;100.00;97323.50;5069267;28;20177;-56
2023/03/02 01:29:41;;;;;;;26.10;13.23;;;;;;;-4.20;100.00;97322.00;5068950;28;20043;-56
2023/03/02 01:32:08;;;;;;;28.05;14.43;;;;;;;-4.23;100.00;97322.31;5070670;28;20604;-57
2023/03/02 01:34:34;;;;;;;28.45;14.77;;;;;;;-4.31;100.00;97323.13;5068778;28;20048;-55
2023/03/02 01:37:01;;;;;;;29.90;15.18;;;;;;;-4.40;100.00;97318.75;5068672;28;20036;-55
2023/03/02 01:39:27;;;;;;;27.58;14.38;;;;;;;-4.42;100.00;97321.59;5070610;28;20051;-55
2023/03/02 01:45:43;;;;;;;29.70;14.63;;;;;;;-4.43;100.00;97314.63;5066849;28;20028;-55
2023/03/02 01:48:13;;;;;;;26.65;13.13;;;;;;;-4.33;100.00;97309.22;5065205;28;20048;-54
2023/03/02 01:50:40;;;;;;;27.52;14.20;;;;;;;-4.38;100.00;97307.06;5071650;28;20048;-54
2023/03/02 01:53:07;;;;;;;32.95;16.65;;;;;;;-4.45;100.00;97306.84;5070922;28;20129;-57
2023/03/02 01:55:37;;;;;;;37.22;16.25;;;;;;;-4.39;100.00;97302.75;5067914;28;20036;-56
2023/03/02 01:58:04;;;;;;;31.92;15.45;;;;;;;-4.38;100.00;97296.50;5081189;28;20075;-55
2023/03/02 02:00:36;;;;;;;33.72;15.45;;;;;;;-4.35;100.00;97293.50;5067236;28;20615;-56
2023/03/02 02:03:29;;;;;;;30.35;15.13;;;;;;;-4.45;100.00;97293.63;5066418;28;20036;-56
2023/03/02 02:06:16;;;;;;;33.95;15.55;;;;;;;-4.53;100.00;97293.63;5069851;28;20055;-57
2023/03/02 02:08:45;;;;;;;27.95;14.10;;;;;;;-4.49;100.00;97294.13;5068420;28;20036;-56
2023/03/02 02:11:12;;;;;;;37.05;17.65;;;;;;;-4.46;100.00;97291.16;5069198;28;20407;-56
2023/03/02 02:13:39;;;;;;;31.23;15.88;;;;;;;-4.55;100.00;97285.00;5067941;28;20587;-56
2023/03/02 02:16:06;;;;;;;35.65;16.90;;;;;;;-4.51;100.00;97285.50;5073515;28;20044;-56
2023/03/02 02:18:36;;;;;;;32.20;15.95;;;;;;;-4.71;100.00;97280.47;5075019;28;20052;-56
2023/03/02 02:21:03;;;;;;;35.80;16.63;;;;;;;-4.60;100.00;97279.38;5071033;28;20735;-55
2023/03/02 02:23:38;;;;;;;33.10;15.73;;;;;;;-4.61;100.00;97275.88;5068998;28;20051;-55
2023/03/02 02:26:19;;;;;;;30.27;14.90;;;;;;;-4.81;100.00;97272.66;5064513;28;20115;-55
2023/03/02 02:28:56;;;;;;;31.90;16.08;;;;;;;-4.77;100.00;97273.16;5071575;28;20046;-56
2023/03/02 02:31:33;;;;;;;30.10;15.05;;;;;;;-4.79;100.00;97275.94;5067829;28;20040;-56
2023/03/02 02:34:05;;;;;;;33.30;16.58;;;;;;;-4.72;100.00;97269.06;5067980;28;20525;-56
2023/03/02 02:36:39;;;;;;;31.80;15.75;;;;;;;-4.64;100.00;97262.97;5070415;28;20028;-55
2023/03/02 02:39:16;;;;;;;31.60;15.80;;;;;;;-4.75;100.00;97258.81;5070552;28;20036;-54
2023/03/02 02:41:46;;;;;;;36.42;16.05;;;;;;;-4.82;100.00;97257.78;5072822;28;20036;-57
2023/03/02 02:44:16;;;;;;;30.90;15.60;;;;;;;-4.87;100.00;97260.88;5073912;28;20036;-55
2023/03/02 02:46:43;;;;;;;33.00;17.73;;;;;;;-4.75;100.00;97260.63;5071700;28;20047;-56
2023/03/02 02:49:34;;;;;;;36.75;16.77;;;;;;;-4.70;100.00;97253.91;5069998;28;20044;-56
2023/03/02 02:52:02;;;;;;;31.13;15.98;;;;;;;-4.90;100.00;97255.91;5067614;28;20064;-55
2023/03/02 02:54:31;;;;;;;37.38;16.85;;;;;;;-4.91;100.00;97256.91;5075119;28;20127;-57
2023/03/02 02:57:01;;;;;;;35.47;17.67;;;;;;;-4.89;100.00;97254.94;5065140;28;20040;-56
2023/03/02 02:59:34;;;;;;;37.45;17.17;;;;;;;-4.88;100.00;97259.25;5072414;28;20597;-56
2023/03/02 03:02:01;;;;;;;32.15;16.67;;;;;;;-4.81;100.00;97263.88;5072506;28;20044;-56
2023/03/02 03:04:30;;;;;;;33.78;16.45;;;;;;;-4.99;100.00;97259.50;5071803;28;20708;-56
2023/03/02 03:07:00;;;;;;;33.90;16.15;;;;;;;-5.02;100.00;97265.91;5079999;28;20027;-57
2023/03/02 03:09:27;;;;;;;35.78;17.02;;;;;;;-4.97;100.00;97266.28;5077016;28;20036;-59
2023/03/02 03:12:13;;;;;;;37.20;16.20;;;;;;;-4.95;100.00;97263.47;5076741;28;20127;-57
2023/03/02 03:14:40;;;;;;;33.65;17.02;;;;;;;-5.08;100.00;97261.28;5079446;28;20089;-56
2023/03/02 03:17:11;;;;;;;35.70;17.05;;;;;;;-5.05;100.00;97262.78;5077726;28;20044;-57
2023/03/02 03:19:48;;;;;;;37.13;16.75;;;;;;;-5.07;100.00;97259.44;5074262;28;20048;-57
2023/03/02 03:22:16;;;;;;;36.28;17.08;;;;;;;-5.13;100.00;97255.59;5075519;28;20050;-57
2023/03/02 03:24:45;;;;;;;41.22;20.05;;;;;;;-4.99;100.00;97262.97;5078995;28;20036;-56
2023/03/02 03:27:15;;;;;;;34.13;17.05;;;;;;;-5.08;100.00;97261.28;5076229;28;20040;-57
2023/03/02 03:29:47;;;;;;;38.22;19.42;;;;;;;-5.07;100.00;97257.66;5070226;28;20106;-58
2023/03/02 03:32:15;;;;;;;33.47;16.98;;;;;;;-5.06;100.00;97253.19;5075232;28;20674;-58
2023/03/02 03:34:43;;;;;;;33.83;16.33;;;;;;;-5.06;100.00;97245.28;5077483;28;20640;-58
2023/03/02 03:37:20;;;;;;;37.08;17.77;;;;;;;-5.06;100.00;97248.72;5074147;28;20036;-58
2023/03/02 03:39:47;;;;;;;33.08;16.27;;;;;;;-5.12;100.00;97250.16;5069614;28;20043;-58
2023/03/02 03:42:15;;;;;;;37.85;17.40;;;;;;;-5.19;100.00;97253.59;5073316;28;20040;-58
2023/03/02 03:44:42;;;;;;;32.35;17.02;;;;;;;-5.22;100.00;97252.09;5073623;28;20134;-57
2023/03/02 03:47:09;;;;;;;35.10;17.83;;;;;;;-5.25;100.00;97253.22;5074689;28;20040;-58
2023/03/02 03:49:35;;;;;;;34.92;16.70;;;;;;;-5.24;100.00;97259.31;5078339;28;20051;-58
2023/03/02 03:52:03;;;;;;;34.05;17.00;;;;;;;-5.18;100.00;97258.72;5075506;28;20670;-58
2023/03/02 03:54:30;;;;;;;32.78;17.08;;;;;;;-5.04;100.00;97261.78;5080530;28;20138;-57
2023/03/02 03:56:57;;;;;;;41.60;18.27;;;;;;;-5.27;100.00;97264.94;5075225;28;20064;-58
2023/03/02 03:59:25;;;;;;;35.92;17.73;;;;;;;-5.36;100.00;97266.66;5070916;28;20039;-57
2023/03/02 04:02:00;;;;;;;34.13;16.30;;;;;;;-5.23;100.00;97269.75;5075876;28;20260;-58
2023/03/02 04:04:35;;;;;;;39.90;17.02;;;;;;;-5.14;100.00;97268.00;5072169;28;20204;-58
2023/03/02 04:07:07;;;;;;;37.40;18.77;;;;;;;-5.26;100.00;97271.88;5072107;28;20435;-57
2023/03/02 04:09:36;;;;;;;34.58;16.80;;;;;;;-5.35;100.00;97269.16;5072154;28;20067;-57
2023/03/02 04:12:07;;;;;;;38.60;17.75;;;;;;;-5.14;100.00;97275.91;5069801;28;20036;-57
2023/03/02 04:14:34;;;;;;;43.85;20.17;;;;;;;-5.03;100.00;97276.63;5073509;28;20140;-57
2023/03/02 04:17:04;;;;;;;37.28;17.75;;;;;;;-4.98;100.00;97277.00;5074604;28;20518;-56
2023/03/02 04:19:31;;;;;;;38.55;18.17;;;;;;;-5.03;100.00;97276.63;5075259;28;20048;-57
2023/03/02 04:22:00;;;;;;;41.47;18.90;;;;;;;-5.06;100.00;97271.69;5075503;28;20135;-55
2023/03/02 04:24:27;;;;;;;41.78;20.33;;;;;;;-5.05;100.00;97273.34;5071705;28;20131;-56
2023/03/02 04:26:56;;;;;;;40.45;20.38;;;;;;;-4.92;100.00;97270.25;5074339;28;20041;-57
2023/03/02 04:29:22;;;;;;;36.53;17.30;;;;;;;-5.03;100.00;97276.63;5075745;28;20068;-55
2023/03/02 04:31:50;;;;;;;37.30;18.40;;;;;;;-5.12;100.00;97279.22;5071273;28;20040;-56
2023/03/02 04:34:18;;;;;;;34.92;19.10;;;;;;;-5.12;100.00;97281.84;5088173;28;20040;-56
2023/03/02 04:36:45;;;;;;;36.40;17.55;;;;;;;-5.19;100.00;97282.63;5068030;28;20028;-56
2023/03/02 04:39:15;;;;;;;37.67;17.48;;;;;;;-5.35;100.00;97279.72;5072750;28;20059;-56
2023/03/02 04:41:46;;;;;;;36.22;16.83;;;;;;;-5.30;100.00;97276.63;5073341;28;20115;-56
2023/03/02 04:44:14;;;;;;;39.72;18.05;;;;;;;-5.25;100.00;97268.22;5077865;28;20040;-57
2023/03/02 04:46:41;;;;;;;33.15;16.13;;;;;;;-5.31;100.00;97269.66;5070305;28;20039;-58
2023/03/02 04:49:10;;;;;;;43.42;18.10;;;;;;;-5.33;100.00;97274.28;5076081;28;20086;-57
2023/03/02 04:51:40;;;;;;;38.38;16.52;;;;;;;-5.36;100.00;97274.59;5067011;28;20110;-58
2023/03/02 04:54:12;;;;;;;38.45;18.48;;;;;;;-5.29;100.00;97280.91;5073471;28;20082;-56
2023/03/02 04:56:38;;;;;;;36.03;18.45;;;;;;;-5.36;100.00;97274.59;5071530;28;20044;-56
2023/03/02 04:59:05;;;;;;;38.67;17.35;;;;;;;-5.31;100.00;97269.66;5074684;28;20032;-56
2023/03/02 05:01:32;;;;;;;39.15;17.83;;;;;;;-5.37;100.00;97263.22;5070008;28;20052;-56
2023/03/02 05:03:59;;;;;;;30.75;16.38;;;;;;;-5.46;100.00;97266.75;5075501;28;20048;-54
2023/03/02 05:06:28;;;;;;;33.42;17.02;;;;;;;-5.41;100.00;97269.78;5076184;28;20067;-55
2023/03/02 05:08:58;;;;;;;41.50;17.35;;;;;;;-5.35;100.00;97269.16;5080066;28;20036;-56
2023/03/02 05:11:26;;;;;;;38.78;16.50;;;;;;;-5.37;100.00;97268.50;5077948;28;20071;-54
2023/03/02 05:13:58;;;;;;;34.70;16.63;;;;;;;-5.31;100.00;97271.50;5073948;28;20040;-56
2023/03/02 05:16:27;;;;;;;36.55;17.45;;;;;;;-5.36;100.00;97269.31;5070778;28;20111;-53
2023/03/02 05:18:54;;;;;;;34.53;16.65;;;;;;;-5.54;100.00;97270.16;5080050;28;20040;-55
2023/03/02 05:21:21;;;;;;;32.45;16.75;;;;;;;-5.53;100.00;97271.81;5084160;28;20040;-52
2023/03/02 05:23:47;;;;;;;45.08;20.40;;;;;;;-5.40;100.00;97276.72;5077832;28;20046;-54
2023/03/02 05:26:14;;;;;;;46.47;21.55;;;;;;;-5.41;100.00;97279.50;5077669;28;20045;-54
2023/03/02 05:28:42;;;;;;;37.38;18.38;;;;;;;-5.40;100.00;97267.97;5075466;28;20045;-52
2023/03/02 05:31:16;;;;;;;39.55;19.13;;;;;;;-5.28;100.00;97265.91;5078708;28;20050;-56
2023/03/02 05:33:43;;;;;;;36.00;19.13;;;;;;;-5.13;100.00;97274.94;5079447;28;20052;-54
2023/03/02 05:36:10;;;;;;;33.63;18.52;;;;;;;-5.17;100.00;97264.84;5081255;28;20071;-53
2023/03/02 05:38:36;;;;;;;40.03;18.83;;;;;;;-5.19;100.00;97257.06;5076089;28;20504;-54
2023/03/02 05:41:03;;;;;;;37.17;19.43;;;;;;;-5.40;100.00;97265.31;5075880;28;20430;-53
2023/03/02 05:43:29;;;;;;;39.65;20.15;;;;;;;-5.60;100.00;97273.41;5082892;28;20465;-53
2023/03/02 05:45:59;;;;;;;35.15;16.45;;;;;;;-5.58;100.00;97274.09;5075222;28;20527;-51
2023/03/02 05:48:27;;;;;;;46.67;19.75;;;;;;;-5.41;100.00;97267.16;5084436;28;20078;-51
2023/03/02 05:50:53;;;;;;;36.20;17.40;;;;;;;-5.33;100.00;97266.38;5075530;28;20506;-54
2023/03/02 05:53:20;;;;;;;36.40;17.63;;;;;;;-5.38;100.00;97266.81;5079799;28;20039;-54
2023/03/02 05:55:47;;;;;;;36.05;17.98;;;;;;;-5.36;100.00;97271.94;5073027;28;20036;-50
2023/03/02 05:58:16;;;;;;;38.15;17.45;;;;;;;-5.30;100.00;97278.44;5085089;28;20415;-54
2023/03/02 06:00:44;;;;;;;34.08;16.35;;;;;;;-5.25;100.00;97273.50;5083545;28;20128;-55
2023/03/02 06:03:11;;;;;;;35.15;18.35;;;;;;;-5.28;100.00;97272.00;5081265;28;20051;-54
2023/03/02 06:05:38;;;;;;;41.83;18.25;;;;;;;-5.26;100.00;97275.34;5070754;28;20072;-57
2023/03/02 06:08:05;;;;;;;36.92;19.20;;;;;;;-5.25;100.00;97278.78;5080855;28;20044;-55
2023/03/02 06:10:32;;;;;;;38.65;18.10;;;;;;;-5.13;100.00;97282.84;5074713;28;20052;-53
2023/03/02 06:12:59;;;;;;;39.38;20.10;;;;;;;-5.16;100.00;97279.69;5076137;28;20043;-54
2023/03/02 06:15:28;;;;;;;41.72;19.02;;;;;;;-5.00;100.00;97285.09;5074777;28;20093;-56
2023/03/02 06:17:58;;;;;;;51.92;23.23;;;;;;;-4.94;100.00;97280.97;5077984;28;20070;-53
2023/03/02 06:20:25;;;;;;;39.33;18.90;;;;;;;-4.87;100.00;97286.50;5082643;28;20036;-53
2023/03/02 06:22:51;;;;;;;42.78;21.92;;;;;;;-4.68;100.00;97293.38;5076147;28;20044;-54
2023/03/02 06:25:23;;;;;;;44.13;20.85;;;;;;;-4.61;100.00;97299.66;5073848;28;20059;-55
2023/03/02 06:27:50;;;;;;;54.58;29.38;;;;;;;-4.22;100.00;97298.38;5076968;28;20112;-53
2023/03/02 06:30:20;;;;;;;48.78;23.42;;;;;;;-4.13;100.00;97307.16;5078630;28;20040;-51
2023/03/02 06:32:47;;;;;;;49.78;26.58;;;;;;;-3.88;100.00;97293.19;5079444;28;20537;-54
2023/03/02 06:35:13;;;;;;;39.40;23.88;;;;;;;-3.97;100.00;97298.47;5076444;28;20512;-54
2023/03/02 06:37:40;;;;;;;40.78;20.10;;;;;;;-3.86;100.00;97299.13;5077541;28;20040;-57
2023/03/02 06:40:10;;;;;;;39.55;20.00;;;;;;;-3.90;100.00;97297.81;5069767;28;20044;-56
2023/03/02 06:42:38;;;;;;;41.45;20.25;;;;;;;-3.89;100.00;97310.03;5081907;28;20048;-55
2023/03/02 06:45:05;;;;;;;37.70;18.50;;;;;;;-3.94;100.00;97308.69;5072251;28;20526;-56
2023/03/02 06:47:32;;;;;;;35.60;18.05;;;;;;;-3.83;100.00;97304.91;5084841;28;20059;-54
2023/03/02 06:49:59;;;;;;;42.38;20.30;;;;;;;-3.70;100.00;97306.28;5073450;28;20105;-56
2023/03/02 06:52:26;;;;;;;38.72;20.98;;;;;;;-3.71;100.00;97309.91;5072247;28;20056;-56
2023/03/02 06:54:53;;;;;;;43.03;20.63;;;;;;;-3.60;100.00;97311.44;5080152;28;20042;-52
2023/03/02 06:57:20;;;;;;;42.85;20.58;;;;;;;-3.52;100.00;97300.84;5077685;28;20040;-54
2023/03/02 06:59:46;;;;;;;47.45;24.17;;;;;;;-3.50;100.00;97300.69;5078195;28;20097;-57
2023/03/02 07:02:13;;;;;;;43.28;21.75;;;;;;;-3.18;100.00;97312.28;5076535;28;20044;-55
2023/03/02 07:04:39;;;;;;;48.97;22.13;;;;;;;-3.10;100.00;97312.28;5080229;28;20048;-55
2023/03/02 07:07:06;;;;;;;42.05;20.02;;;;;;;-2.71;100.00;97313.41;5079358;28;20040;-55
2023/03/02 07:09:33;;;;;;;38.95;19.48;;;;;;;-2.55;100.00;97311.72;5075191;28;20408;-53
2023/03/02 07:11:59;;;;;;;41.60;20.55;;;;;;;-2.57;100.00;97313.72;5075123;28;20058;-54
2023/03/02 07:14:26;;;;;;;45.33;20.70;;;;;;;-2.55;100.00;97309.88;5076781;28;20127;-57
2023/03/02 07:16:52;;;;;;;45.08;20.00;;;;;;;-2.31;100.00;97305.53;5076706;28;20108;-55
2023/03/02 07:19:19;;;;;;;31.52;15.98;;;;;;;-2.10;100.00;97309.44;5077885;28;20059;-52
2023/03/02 07:21:45;;;;;;;36.72;17.70;;;;;;;-1.91;100.00;97315.31;5078522;28;20130;-50
2023/03/02 07:24:12;;;;;;;32.78;16.98;;;;;;;-1.88;100.00;97321.09;5074892;28;20875;-57
2023/03/02 07:26:38;;;;;;;35.50;19.45;;;;;;;-1.81;100.00;97317.75;5078974;28;20040;-55
2023/03/02 07:29:05;;;;;;;32.40;17.15;;;;;;;-1.68;100.00;97319.81;5078122;28;20507;-56
2023/03/02 07:31:31;;;;;;;34.33;16.85;;;;;;;-1.67;100.00;97324.16;5077119;28;20047;-56
2023/03/02 07:33:58;;;;;;;32.25;16.58;;;;;;;-1.65;100.00;97322.13;5079916;28;20751;-55
2023/03/02 07:36:25;;;;;;;31.58;17.60;;;;;;;-1.53;99.88;97331.34;5073173;28;20051;-56
2023/03/02 07:38:51;;;;;;;33.88;17.27;;;;;;;-1.42;99.75;97329.28;5076210;28;20040;-52
2023/03/02 07:41:18;;;;;;;35.75;17.60;;;;;;;-1.30;99.76;97325.22;5077265;28;20082;-52
2023/03/02 07:43:44;;;;;;;34.10;16.75;;;;;;;-1.29;98.46;97326.06;5075759;28;20138;-57
2023/03/02 07:46:11;;;;;;;39.13;20.40;;;;;;;-1.31;99.06;97324.41;5078996;28;20123;-56
2023/03/02 07:48:37;;;;;;;33.90;17.73;;;;;;;-1.19;98.01;97329.28;5078577;28;20064;-54
2023/03/02 07:51:05;;;;;;;38.85;22.85;;;;;;;-1.19;97.96;97327.47;5072886;28;20032;-56
2023/03/02 07:53:31;;;;;;;41.80;24.77;;;;;;;-1.23;98.46;97328.81;5080750;28;20040;-54
2023/03/02 07:56:00;;;;;;;37.78;19.23;;;;;;;-1.09;97.87;97332.56;5084143;28;20426;-61
2023/03/02 07:58:27;;;;;;;32.10;16.23;;;;;;;-1.04;97.78;97334.66;5083346;28;20070;-47
2023/03/02 08:00:53;;;;;;;32.85;16.00;;;;;;;-1.06;97.63;97329.50;5072961;28;20127;-51
2023/03/02 08:03:20;;;;;;;30.45;17.02;;;;;;;-1.01;97.06;97334.31;5080015;28;20106;-48
2023/03/02 08:05:46;;;;;;;35.58;16.90;;;;;;;-0.87;96.24;97331.88;5079900;28;20070;-54
2023/03/02 08:08:13;;;;;;;37.30;16.83;;;;;;;-0.67;96.59;97330.34;5084346;28;20658;-58
2023/03/02 08:10:39;;;;;;;34.88;17.58;;;;;;;-0.56;95.40;97328.25;5076445;28;20048;-56
2023/03/02 08:13:06;;;;;;;33.10;16.70;;;;;;;-0.53;94.61;97331.38;5078511;28;20441;-57
2023/03/02 08:15:32;;;;;;;33.35;16.27;;;;;;;-0.41;95.12;97336.25;5074470;28;20117;-50
2023/03/02 08:17:59;;;;;;;28.55;15.88;;;;;;;-0.38;93.09;97343.06;5078980;28;20569;-56
2023/03/02 08:20:25;;;;;;;37.75;16.80;;;;;;;-0.39;93.32;97336.91;5070261;28;20082;-55
2023/03/02 08:22:52;;;;;;;39.67;17.75;;;;;;;-0.31;92.78;97328.00;5072658;28;20638;-55
2023/03/02 08:25:18;;;;;;;29.77;15.50;;;;;;;-0.30;93.76;97341.13;5074772;28;20119;-57
2023/03/02 08:27:45;;;;;;;33.78;16.52;;;;;;;-0.26;93.54;97338.91;5077572;28;20112;-58
2023/03/02 08:30:13;;;;;;;36.60;17.85;;;;;;;-0.14;93.61;97340.09;5075520;28;20036;-57
2023/03/02 08:32:39;;;;;;;35.00;17.38;;;;;;;-0.12;92.69;97336.47;5078085;28;20544;-58
2023/03/02 08:35:07;;;;;;;30.77;16.67;;;;;;;-0.01;92.65;97331.47;5074568;28;20123;-57
2023/03/02 08:37:33;;;;;;;30.08;18.05;;;;;;;-0.01;92.66;97339.47;5071954;28;20048;-57
2023/03/02 08:40:00;;;;;;;32.58;17.17;;;;;;;0.09;92.23;97335.69;5076905;28;20044;-56
2023/03/02 08:42:26;;;;;;;32.78;16.25;;;;;;;0.11;92.78;97331.81;5072032;28;20040;-57
2023/03/02 08:44:53;;;;;;;30.02;16.50;;;;;;;0.21;92.33;97333.38;5077080;28;20059;-56
2023/03/02 08:47:19;;;;;;;28.35;15.40;;;;;;;0.30;91.27;97329.63;5080254;28;20079;-57
2023/03/02 08:49:46;;;;;;;33.72;16.00;;;;;;;0.36;90.00;97339.50;5082905;28;20702;-58
2023/03/02 08:52:14;;;;;;;31.55;15.82;;;;;;;0.46;91.13;97335.72;5077122;28;20597;-58
2023/03/02 08:54:40;;;;;;;29.92;15.20;;;;;;;0.58;90.69;97328.88;5076936;28;20146;-55
2023/03/02 08:57:10;;;;;;;31.33;15.23;;;;;;;0.70;89.74;97334.53;5077855;28;20067;-58
2023/03/02 08:59:36;;;;;;;27.02;14.80;;;;;;;0.78;89.58;97325.59;5077666;28;20455;-53
2023/03/02 09:02:03;;;;;;;27.92;14.85;;;;;;;0.75;88.78;97326.81;5071965;28;20105;-57
2023/03/02 09:04:29;;;;;;;34.10;16.63;;;;;;;0.79;88.30;97311.25;5074660;28;20044;-58
2023/03/02 09:06:56;;;;;;;29.65;16.17;;;;;;;0.86;88.60;97317.47;5072874;28;20111;-55
2023/03/02 09:09:22;;;;;;;30.77;15.43;;;;;;;1.00;87.80;97313.06;5075739;28;20056;-57
2023/03/02 09:11:49;;;;;;;26.92;15.85;;;;;;;0.90;87.97;97316.09;5073410;28;20043;-60
2023/03/02 09:14:15;;;;;;;28.65;15.13;;;;;;;0.97;88.49;97317.97;5070321;28;20044;-61
2023/03/02 09:16:42;;;;;;;31.50;14.93;;;;;;;1.12;86.87;97318.72;5074948;28;20093;-60
2023/03/02 09:19:10;;;;;;;31.52;16.00;;;;;;;1.19;86.78;97321.44;5079408;28;20048;-58
2023/03/02 09:21:37;;;;;;;28.52;15.48;;;;;;;1.27;86.54;97321.31;5079834;28;20078;-59
2023/03/02 09:24:03;;;;;;;28.15;14.75;;;;;;;1.30;86.61;97325.44;5081652;28;20503;-56
2023/03/02 09:26:30;;;;;;;26.27;13.77;;;;;;;1.41;87.08;97324.88;5074900;28;20116;-54
2023/03/02 09:28:56;;;;;;;33.67;19.08;;;;;;;1.49;85.39;97331.09;5073851;28;20074;-54
2023/03/02 09:31:23;;;;;;;30.25;16.75;;;;;;;1.64;84.78;97321.16;5075676;28;20060;-53
2023/03/02 09:33:49;;;;;;;27.08;13.98;;;;;;;1.61;84.05;97316.19;5071498;28;20050;-51
2023/03/02 09:36:22;;;;;;;26.45;13.93;;;;;;;1.65;83.80;97317.47;5075511;28;20101;-51
2023/03/02 09:38:49;;;;;;;25.02;14.82;;;;;;;1.67;84.17;97318.06;5079714;28;20044;-57
2023/03/02 09:41:18;;;;;;;30.95;15.38;;;;;;;1.72;84.77;97311.31;5076315;28;20063;-54
2023/03/02 09:44:16;;;;;;;32.65;15.60;;;;;;;1.98;83.27;97312.50;5076688;28;20568;-56
2023/03/02 09:46:48;;;;;;;26.42;14.00;;;;;;;2.00;82.82;97321.97;5076570;28;20476;-56
2023/03/02 09:49:24;;;;;;;26.88;13.63;;;;;;;2.21;81.28;97320.19;5074488;28;20105;-55
2023/03/02 09:52:18;;;;;;;29.45;14.45;;;;;;;2.30;81.85;97326.19;5076768;28;20085;-57
2023/03/02 09:54:45;;;;;;;30.05;13.80;;;;;;;2.53;80.31;97322.34;5077618;28;20039;-55
2023/03/02 09:57:24;;;;;;;28.85;14.23;;;;;;;2.67;80.16;97323.22;5078126;28;20126;-56
2023/03/02 10:00:03;;;;;;;26.60;14.27;;;;;;;2.79;79.44;97329.63;5075786;28;20036;-55
2023/03/02 10:02:51;;;;;;;28.13;15.43;;;;;;;2.76;79.32;97324.66;5076238;28;20071;-56
2023/03/02 10:05:34;;;;;;;27.27;14.55;;;;;;;2.93;79.86;97322.44;5076613;28;20040;-56
2023/03/02 10:08:01;;;;;;;23.20;13.02;;;;;;;3.00;77.82;97327.81;5078794;28;20144;-56
2023/03/02 10:10:41;;;;;;;31.67;13.90;;;;;;;3.24;79.13;97331.72;5075893;28;20048;-58
2023/03/02 10:13:41;;;;;;;25.58;14.10;;;;;;;3.17;77.52;97330.88;5079786;28;20495;-57
2023/03/02 10:16:28;;;;;;;26.13;14.43;;;;;;;3.28;76.87;97326.78;5078066;28;20048;-55
2023/03/02 10:19:16;;;;;;;27.65;14.70;;;;;;;3.34;76.92;97328.66;5072191;28;20036;-57
2023/03/02 10:21:46;;;;;;;26.10;14.00;;;;;;;3.43;77.19;97339.13;5081002;28;20100;-58
2023/03/02 10:24:37;;;;;;;27.85;14.50;;;;;;;3.36;76.25;97339.94;5073636;28;20154;-58
2023/03/02 10:27:19;;;;;;;30.63;14.68;;;;;;;3.66;75.54;97336.03;5072657;28;20143;-58
2023/03/02 10:30:00;;;;;;;25.73;14.05;;;;;;;3.67;75.99;97340.34;5075504;28;20047;-56
2023/03/02 10:32:31;;;;;;;30.23;14.32;;;;;;;3.84;73.65;97329.19;5073297;28;20044;-57
2023/03/02 10:35:04;;;;;;;28.08;14.70;;;;;;;3.73;74.50;97331.47;5070920;28;20127;-55
2023/03/02 10:37:31;;;;;;;29.75;15.07;;;;;;;3.69;75.10;97340.94;5073949;28;20044;-58
2023/03/02 10:39:58;;;;;;;25.27;14.15;;;;;;;3.83;74.25;97340.94;5072041;28;20123;-58
2023/03/02 10:42:32;;;;;;;22.25;13.73;;;;;;;3.98;73.21;97344.19;5073168;28;20076;-58
2023/03/02 10:45:04;;;;;;;26.17;14.23;;;;;;;3.91;74.39;97335.38;5070992;28;20459;-57
2023/03/02 10:47:31;;;;;;;28.77;14.18;;;;;;;3.90;74.52;97334.53;5069528;28;20052;-58
2023/03/02 10:49:57;;;;;;;29.85;14.60;;;;;;;3.89;74.34;97332.91;5077279;28;20040;-58
2023/03/02 10:52:26;;;;;;;23.48;13.68;;;;;;;4.17;72.51;97336.31;5077429;28;20048;-58
2023/03/02 10:55:13;;;;;;;31.90;15.05;;;;;;;4.18;73.57;97332.59;5071488;28;20058;-58
2023/03/02 10:57:42;;;;;;;25.15;13.43;;;;;;;4.20;73.11;97335.88;5073819;28;20046;-58
2023/03/02 11:00:17;;;;;;;25.63;13.52;;;;;;;4.24;73.77;97333.63;5078451;28;20119;-58
2023/03/02 11:03:04;;;;;;;30.48;14.30;;;;;;;4.39;72.75;97328.00;5076942;28;20117;-58
2023/03/02 11:05:34;;;;;;;25.10;14.70;;;;;;;4.58;71.77;97325.41;5073906;28;20040;-57
2023/03/02 11:08:16;;;;;;;28.45;14.30;;;;;;;4.55;71.77;97330.19;5075128;28;20094;-56
2023/03/02 11:11:00;;;;;;;27.80;14.25;;;;;;;4.51;72.19;97328.97;5077095;28;20403;-57
2023/03/02 11:13:38;;;;;;;26.75;14.35;;;;;;;4.59;71.42;97321.69;5074440;28;20613;-58
2023/03/02 11:16:16;;;;;;;24.40;13.43;;;;;;;4.63;71.67;97322.91;5074301;28;20669;-58
2023/03/02 11:18:50;;;;;;;27.40;12.75;;;;;;;4.89;70.87;97319.25;5079984;28;20462;-57
2023/03/02 11:21:31;;;;;;;26.10;14.07;;;;;;;4.98;69.89;97327.03;5073190;28;20698;-60
2023/03/02 11:24:20;;;;;;;24.95;13.55;;;;;;;4.86;70.25;97324.25;5066616;28;20845;-58
2023/03/02 11:27:18;;;;;;;24.55;14.05;;;;;;;4.94;70.01;97321.31;5072684;28;20036;-58
2023/03/02 11:30:01;;;;;;;25.00;12.88;;;;;;;4.93;70.91;97315.09;5079407;28;20467;-59